Hlavní strana
METAR-TAF:

METAR-TAF

Letiště :

Carmi Municipal Airport

Carmi, Illinois, Spojené státy americké

zeměpisná šířka: 38-05-22N, zeměpisná délka: 088-07-23W, výška: 118 m

Aktuální stav počasí

Zpráva byla vytvořena před 24 minutami, v 00:52 UTC
Severozápadní vítr 4 kt
Teplota 22°C
Vlhkost vzduchu 83%
Tlak 1016 hPa
Viditelnost: 16.1 km
Zataženo ve výšce 2800 ft

METAR: KCUL 220052Z AUTO 32004KT 10SM OVC028 22/19 A3000 RMK AO2

Čas: 20:16 (01:16 UTC)


TAF: chybějící

Stav a předpovědi počasí z více než 4 000 letišť (zprávy METAR a TAF).

Červené a žluté tečky na mapě představují dostupné meteorologické stanice.

Když kurzor umístíte na tečku, zobrazí se název stanice.

Pak kliknutím zobrazíte stav a předpověď počasí.

Chcete-li změnit mapu, kliknutím na zelené tlačítko se znaménkem +mapu přiblížíte, kliknutím na zelené tlačítko se znaménkem – mapu oddálíte a kliknutím na zelené šipky přejdete na sousední mapy.


METAR-TAF: